RYR46WL EDDV-LEJR
Flight info
| Callsign | RYR46WL |
|---|---|
| Flight time | 3h 26m |
| Altitude | 37000 |
| Route | VAXEV2S VAXEV Z718 MAWEQ Y348 DOMEG DCT LNO DCT RASCA DCT FAMEN/N0452F370 DCT AHVEC UN857 DISAK DCT ARKIP DCT ARNAV DCT LMG DCT UVELI DCT OSMOB DCT ARVID DCT PPN DCT NOLSA N857 MOLIN DCT HIJ |
| Aircraft | B38M/M-SDE1FGHILORVWXY/HB1 |
Departure
| Time | 2026-05-05 10:26 |
|---|---|
| Airport | Hannover Airport (EDDV) |
Arrival
| Time | 2026-05-05 13:52 |
|---|---|
| Airport | Jerez Airport (LEJR) |
| Time | Latitude | Longitude | Altitude | Speed | Heading |
|---|---|---|---|---|---|
| 2026-05-05 09:48 | 52.45733 | 9.69959 | 181 ft | 0 kts | 32° |
| 2026-05-05 10:15 | 52.45713 | 9.69937 | 181 ft | 4 kts | 36° |
| 2026-05-05 10:15 | 52.45693 | 9.69909 | 181 ft | 4 kts | 46° |
| 2026-05-05 10:16 | 52.45678 | 9.69877 | 181 ft | 3 kts | 62° |
| 2026-05-05 10:16 | 52.45671 | 9.69842 | 181 ft | 3 kts | 84° |
| 2026-05-05 10:16 | 52.45671 | 9.69810 | 181 ft | 2 kts | 97° |
| 2026-05-05 10:16 | 52.45672 | 9.69791 | 181 ft | 2 kts | 97° |
| 2026-05-05 10:17 | 52.45673 | 9.69780 | 181 ft | 0 kts | 95° |
| 2026-05-05 10:19 | 52.45673 | 9.69784 | 181 ft | 1 kts | 95° |
| 2026-05-05 10:19 | 52.45671 | 9.69823 | 181 ft | 7 kts | 95° |
| 2026-05-05 10:19 | 52.45667 | 9.69945 | 181 ft | 13 kts | 91° |
| 2026-05-05 10:20 | 52.45664 | 9.70103 | 181 ft | 14 kts | 92° |
| 2026-05-05 10:20 | 52.45659 | 9.70270 | 181 ft | 15 kts | 92° |
| 2026-05-05 10:20 | 52.45655 | 9.70425 | 181 ft | 10 kts | 92° |
| 2026-05-05 10:20 | 52.45652 | 9.70550 | 181 ft | 12 kts | 92° |
| 2026-05-05 10:21 | 52.45621 | 9.70667 | 181 ft | 12 kts | 152° |
| 2026-05-05 10:21 | 52.45577 | 9.70772 | 181 ft | 12 kts | 94° |
| 2026-05-05 10:21 | 52.45573 | 9.70917 | 181 ft | 13 kts | 92° |
| 2026-05-05 10:21 | 52.45547 | 9.71065 | 181 ft | 14 kts | 131° |
| 2026-05-05 10:22 | 52.45503 | 9.71102 | 182 ft | 0 kts | 171° |
| 2026-05-05 10:25 | 52.45501 | 9.71103 | 182 ft | 2 kts | 171° |
| 2026-05-05 10:25 | 52.45467 | 9.71104 | 183 ft | 8 kts | 181° |
| 2026-05-05 10:25 | 52.45410 | 9.71067 | 192 ft | 11 kts | 247° |
| 2026-05-05 10:26 | 52.45409 | 9.70859 | 187 ft | 36 kts | 272° |
| 2026-05-05 10:26 | 52.45433 | 9.69981 | 184 ft | 116 kts | 272° |
| 2026-05-05 10:26 | 52.45465 | 9.68276 | 212 ft | 179 kts | 267° |
| 2026-05-05 10:26 | 52.45403 | 9.66137 | 925 ft | 196 kts | 272° |
| 2026-05-05 10:27 | 52.45487 | 9.63828 | 1817 ft | 212 kts | 275° |
| 2026-05-05 10:27 | 52.45601 | 9.61374 | 2812 ft | 215 kts | 274° |
| 2026-05-05 10:27 | 52.45705 | 9.58902 | 3607 ft | 225 kts | 273° |
| 2026-05-05 10:27 | 52.45795 | 9.56261 | 4401 ft | 240 kts | 271° |
| 2026-05-05 10:28 | 52.45878 | 9.53437 | 5187 ft | 252 kts | 271° |
| 2026-05-05 10:28 | 52.45879 | 9.50571 | 6334 ft | 250 kts | 259° |
| 2026-05-05 10:28 | 52.45398 | 9.47881 | 7463 ft | 245 kts | 251° |
| 2026-05-05 10:28 | 52.44862 | 9.45178 | 8284 ft | 252 kts | 251° |
| 2026-05-05 10:29 | 52.44303 | 9.42406 | 9017 ft | 263 kts | 251° |
| 2026-05-05 10:29 | 52.43702 | 9.39466 | 9626 ft | 278 kts | 251° |
| 2026-05-05 10:29 | 52.43078 | 9.36441 | 10516 ft | 283 kts | 250° |
| 2026-05-05 10:29 | 52.42425 | 9.33303 | 11196 ft | 299 kts | 250° |
| 2026-05-05 10:30 | 52.41745 | 9.30041 | 11615 ft | 316 kts | 250° |
| 2026-05-05 10:30 | 52.41015 | 9.26551 | 12124 ft | 328 kts | 250° |
| 2026-05-05 10:30 | 52.40318 | 9.22958 | 12856 ft | 333 kts | 258° |
| 2026-05-05 10:30 | 52.40084 | 9.19177 | 13681 ft | 336 kts | 265° |
| 2026-05-05 10:31 | 52.39895 | 9.15329 | 14326 ft | 341 kts | 264° |
| 2026-05-05 10:31 | 52.39768 | 9.12764 | 14804 ft | 343 kts | 264° |
| 2026-05-05 10:31 | 52.39489 | 9.08821 | 15478 ft | 346 kts | 255° |
| 2026-05-05 10:31 | 52.38667 | 9.05158 | 16176 ft | 349 kts | 249° |
| 2026-05-05 10:32 | 52.37775 | 9.01376 | 16810 ft | 354 kts | 249° |
| 2026-05-05 10:32 | 52.36889 | 8.97657 | 17475 ft | 357 kts | 249° |
| 2026-05-05 10:32 | 52.35974 | 8.93843 | 18120 ft | 361 kts | 249° |
| 2026-05-05 10:32 | 52.35046 | 8.89991 | 18714 ft | 364 kts | 249° |
| 2026-05-05 10:33 | 52.34113 | 8.86128 | 19327 ft | 367 kts | 249° |
| 2026-05-05 10:33 | 52.33170 | 8.82234 | 19921 ft | 369 kts | 249° |
| 2026-05-05 10:33 | 52.32224 | 8.78333 | 20547 ft | 370 kts | 249° |
| 2026-05-05 10:33 | 52.31272 | 8.74414 | 21131 ft | 372 kts | 249° |
| 2026-05-05 10:34 | 52.30315 | 8.70480 | 21701 ft | 373 kts | 249° |
| 2026-05-05 10:34 | 52.29352 | 8.66533 | 22273 ft | 375 kts | 249° |
| 2026-05-05 10:34 | 52.28384 | 8.62570 | 22832 ft | 377 kts | 248° |
| 2026-05-05 10:34 | 52.27278 | 8.58673 | 23382 ft | 380 kts | 237° |
| 2026-05-05 10:35 | 52.25597 | 8.55344 | 23879 ft | 381 kts | 230° |
| 2026-05-05 10:35 | 52.23834 | 8.52079 | 24293 ft | 384 kts | 230° |
| 2026-05-05 10:35 | 52.22046 | 8.48811 | 24770 ft | 386 kts | 230° |
| 2026-05-05 10:35 | 52.20244 | 8.45552 | 25219 ft | 387 kts | 229° |
| 2026-05-05 10:36 | 52.18454 | 8.42334 | 25642 ft | 389 kts | 229° |
| 2026-05-05 10:36 | 52.16626 | 8.39061 | 26073 ft | 391 kts | 229° |
| 2026-05-05 10:36 | 52.14796 | 8.35789 | 26494 ft | 392 kts | 229° |
| 2026-05-05 10:36 | 52.12945 | 8.32487 | 26908 ft | 394 kts | 229° |
| 2026-05-05 10:37 | 52.11090 | 8.29182 | 27316 ft | 396 kts | 229° |
| 2026-05-05 10:37 | 52.09225 | 8.25862 | 27713 ft | 397 kts | 229° |
| 2026-05-05 10:37 | 52.07357 | 8.22542 | 28138 ft | 399 kts | 229° |
| 2026-05-05 10:37 | 52.05472 | 8.19196 | 28540 ft | 401 kts | 229° |
| 2026-05-05 10:38 | 52.03601 | 8.15881 | 28919 ft | 403 kts | 229° |
| 2026-05-05 10:38 | 52.01698 | 8.12512 | 29283 ft | 405 kts | 229° |
| 2026-05-05 10:38 | 51.99794 | 8.09147 | 29652 ft | 407 kts | 229° |
| 2026-05-05 10:38 | 51.97866 | 8.05743 | 29994 ft | 408 kts | 229° |
| 2026-05-05 10:39 | 51.95939 | 8.02346 | 30295 ft | 410 kts | 228° |
| 2026-05-05 10:39 | 51.94008 | 7.98946 | 30614 ft | 411 kts | 228° |
| 2026-05-05 10:39 | 51.92067 | 7.95533 | 30928 ft | 411 kts | 228° |
| 2026-05-05 10:39 | 51.90125 | 7.92124 | 31228 ft | 413 kts | 228° |
| 2026-05-05 10:40 | 51.88199 | 7.88747 | 31525 ft | 413 kts | 228° |
| 2026-05-05 10:40 | 51.86248 | 7.85332 | 31865 ft | 413 kts | 228° |
| 2026-05-05 10:40 | 51.84297 | 7.81919 | 32314 ft | 410 kts | 228° |
| 2026-05-05 10:40 | 51.82363 | 7.78543 | 32792 ft | 407 kts | 228° |
| 2026-05-05 10:41 | 51.80444 | 7.75196 | 33234 ft | 404 kts | 228° |
| 2026-05-05 10:41 | 51.78543 | 7.71886 | 33663 ft | 401 kts | 228° |
| 2026-05-05 10:41 | 51.76645 | 7.68586 | 34056 ft | 399 kts | 228° |
| 2026-05-05 10:41 | 51.74754 | 7.65300 | 34333 ft | 399 kts | 228° |
| 2026-05-05 10:42 | 51.70954 | 7.58708 | 34705 ft | 402 kts | 227° |
| 2026-05-05 10:42 | 51.69043 | 7.55397 | 34938 ft | 403 kts | 227° |
| 2026-05-05 10:42 | 51.67129 | 7.52083 | 35149 ft | 404 kts | 227° |
| 2026-05-05 10:43 | 51.65206 | 7.48760 | 35356 ft | 406 kts | 227° |
| 2026-05-05 10:43 | 51.63280 | 7.45432 | 35561 ft | 407 kts | 227° |
| 2026-05-05 10:43 | 51.61348 | 7.42103 | 35778 ft | 408 kts | 227° |
| 2026-05-05 10:43 | 51.59407 | 7.38758 | 35997 ft | 409 kts | 227° |
| 2026-05-05 10:44 | 51.57464 | 7.35416 | 36199 ft | 410 kts | 227° |
| 2026-05-05 10:44 | 51.55516 | 7.32071 | 36412 ft | 410 kts | 227° |
| 2026-05-05 10:44 | 51.53558 | 7.28713 | 36596 ft | 411 kts | 227° |
| 2026-05-05 10:44 | 51.51628 | 7.25407 | 36765 ft | 412 kts | 227° |
| 2026-05-05 10:45 | 51.49659 | 7.22039 | 36883 ft | 413 kts | 227° |
| 2026-05-05 10:45 | 51.45725 | 7.15324 | 36904 ft | 412 kts | 227° |
| 2026-05-05 10:46 | 51.41796 | 7.08634 | 36865 ft | 412 kts | 227° |
| 2026-05-05 10:46 | 51.37887 | 7.01996 | 36875 ft | 412 kts | 227° |
| 2026-05-05 10:47 | 51.33949 | 6.95328 | 36879 ft | 412 kts | 226° |
| 2026-05-05 10:47 | 51.30011 | 6.88676 | 36884 ft | 411 kts | 226° |
| 2026-05-05 10:48 | 51.26087 | 6.82067 | 36885 ft | 412 kts | 226° |
| 2026-05-05 10:48 | 51.22141 | 6.75438 | 36882 ft | 412 kts | 226° |
| 2026-05-05 10:49 | 51.18188 | 6.68815 | 36885 ft | 412 kts | 226° |
| 2026-05-05 10:49 | 51.14232 | 6.62206 | 36887 ft | 412 kts | 226° |
| 2026-05-05 10:50 | 51.10275 | 6.55611 | 36883 ft | 412 kts | 226° |
| 2026-05-05 10:50 | 51.06305 | 6.49012 | 36879 ft | 412 kts | 226° |
| 2026-05-05 10:51 | 51.02341 | 6.42440 | 36879 ft | 412 kts | 225° |
| 2026-05-05 10:51 | 50.98364 | 6.35863 | 36879 ft | 412 kts | 225° |
| 2026-05-05 10:52 | 50.94380 | 6.29295 | 36881 ft | 412 kts | 225° |
| 2026-05-05 10:52 | 50.90423 | 6.22785 | 36881 ft | 412 kts | 225° |
| 2026-05-05 10:53 | 50.86434 | 6.16242 | 36887 ft | 413 kts | 225° |
| 2026-05-05 10:53 | 50.82440 | 6.09708 | 36882 ft | 413 kts | 225° |
| 2026-05-05 10:54 | 50.78442 | 6.03184 | 36879 ft | 414 kts | 225° |
| 2026-05-05 10:54 | 50.74424 | 5.96644 | 36877 ft | 414 kts | 225° |
| 2026-05-05 10:55 | 50.70406 | 5.90121 | 36875 ft | 414 kts | 225° |
| 2026-05-05 10:55 | 50.66409 | 5.83646 | 36871 ft | 414 kts | 225° |
| 2026-05-05 10:56 | 50.62377 | 5.77130 | 36877 ft | 415 kts | 224° |
| 2026-05-05 10:56 | 50.58385 | 5.70531 | 36871 ft | 416 kts | 230° |
| 2026-05-05 10:57 | 50.54768 | 5.63478 | 36882 ft | 417 kts | 229° |
| 2026-05-05 10:57 | 50.51070 | 5.56431 | 36883 ft | 417 kts | 229° |
| 2026-05-05 10:58 | 50.47360 | 5.49404 | 36882 ft | 417 kts | 229° |
| 2026-05-05 10:58 | 50.43648 | 5.42394 | 36880 ft | 417 kts | 229° |
| 2026-05-05 10:59 | 50.39928 | 5.35388 | 36873 ft | 418 kts | 228° |
| 2026-05-05 10:59 | 50.36193 | 5.28371 | 36876 ft | 418 kts | 228° |
| 2026-05-05 11:00 | 50.32481 | 5.21418 | 36879 ft | 419 kts | 228° |
| 2026-05-05 11:00 | 50.28735 | 5.14420 | 36876 ft | 419 kts | 228° |
| 2026-05-05 11:01 | 50.24977 | 5.07418 | 36878 ft | 420 kts | 228° |
| 2026-05-05 11:01 | 50.21219 | 5.00434 | 36889 ft | 420 kts | 228° |
| 2026-05-05 11:02 | 50.17448 | 4.93445 | 36875 ft | 421 kts | 228° |
| 2026-05-05 11:02 | 50.13673 | 4.86454 | 36884 ft | 421 kts | 228° |
| 2026-05-05 11:03 | 50.09919 | 4.79511 | 36881 ft | 422 kts | 228° |
| 2026-05-05 11:03 | 50.06129 | 4.72517 | 36878 ft | 422 kts | 227° |
| 2026-05-05 11:04 | 50.02330 | 4.65527 | 36878 ft | 423 kts | 227° |
| 2026-05-05 11:04 | 49.98523 | 4.58540 | 36876 ft | 424 kts | 227° |
| 2026-05-05 11:05 | 49.94479 | 4.51883 | 36872 ft | 423 kts | 224° |
| 2026-05-05 11:05 | 49.90437 | 4.45304 | 36874 ft | 424 kts | 224° |
| 2026-05-05 11:06 | 49.86363 | 4.38668 | 36869 ft | 425 kts | 224° |
| 2026-05-05 11:06 | 49.82274 | 4.32024 | 36868 ft | 425 kts | 224° |
| 2026-05-05 11:07 | 49.78182 | 4.25388 | 36864 ft | 426 kts | 224° |
| 2026-05-05 11:07 | 49.74078 | 4.18754 | 36861 ft | 426 kts | 224° |
| 2026-05-05 11:08 | 49.69971 | 4.12132 | 36859 ft | 427 kts | 224° |
| 2026-05-05 11:08 | 49.65875 | 4.05544 | 36866 ft | 428 kts | 224° |
| 2026-05-05 11:09 | 49.61744 | 3.98917 | 36855 ft | 428 kts | 224° |
| 2026-05-05 11:09 | 49.57605 | 3.92295 | 36863 ft | 428 kts | 224° |
| 2026-05-05 11:10 | 49.53460 | 3.85680 | 36858 ft | 429 kts | 224° |
| 2026-05-05 11:10 | 49.49307 | 3.79070 | 36860 ft | 429 kts | 224° |
| 2026-05-05 11:11 | 49.45151 | 3.72473 | 36858 ft | 430 kts | 224° |
| 2026-05-05 11:11 | 49.40986 | 3.65877 | 36853 ft | 430 kts | 224° |
| 2026-05-05 11:12 | 49.36836 | 3.59324 | 36857 ft | 431 kts | 224° |
| 2026-05-05 11:12 | 49.32644 | 3.52721 | 36849 ft | 431 kts | 224° |
| 2026-05-05 11:13 | 49.29166 | 3.47254 | 36854 ft | 431 kts | 224° |
| 2026-05-05 11:13 | 49.24975 | 3.40685 | 36854 ft | 431 kts | 224° |
| 2026-05-05 11:14 | 49.20778 | 3.34121 | 36841 ft | 431 kts | 223° |
| 2026-05-05 11:14 | 49.16570 | 3.27558 | 36847 ft | 432 kts | 223° |
| 2026-05-05 11:15 | 49.12358 | 3.21005 | 36843 ft | 433 kts | 223° |
| 2026-05-05 11:15 | 49.08136 | 3.14455 | 36840 ft | 433 kts | 223° |
| 2026-05-05 11:16 | 49.03897 | 3.07894 | 36852 ft | 434 kts | 223° |
| 2026-05-05 11:16 | 48.99652 | 3.01342 | 36844 ft | 434 kts | 223° |
| 2026-05-05 11:17 | 48.95420 | 2.94826 | 36848 ft | 435 kts | 223° |
| 2026-05-05 11:17 | 48.91147 | 2.88262 | 36848 ft | 436 kts | 223° |
| 2026-05-05 11:18 | 48.86861 | 2.81692 | 36846 ft | 437 kts | 223° |
| 2026-05-05 11:18 | 48.82581 | 2.75114 | 36845 ft | 438 kts | 226° |
| 2026-05-05 11:19 | 48.79032 | 2.67571 | 36823 ft | 440 kts | 233° |
| 2026-05-05 11:19 | 48.75570 | 2.59976 | 36852 ft | 441 kts | 233° |
| 2026-05-05 11:20 | 48.72075 | 2.52312 | 36860 ft | 441 kts | 233° |
| 2026-05-05 11:20 | 48.68582 | 2.44671 | 36856 ft | 441 kts | 233° |
| 2026-05-05 11:21 | 48.65083 | 2.37041 | 36855 ft | 441 kts | 233° |
| 2026-05-05 11:21 | 48.61577 | 2.29417 | 36854 ft | 441 kts | 233° |
| 2026-05-05 11:22 | 48.57862 | 2.22167 | 36828 ft | 436 kts | 218° |
| 2026-05-05 11:22 | 48.55350 | 2.19629 | 36852 ft | 433 kts | 203° |
| 2026-05-05 11:22 | 48.52512 | 2.18144 | 36849 ft | 432 kts | 193° |
| 2026-05-05 11:23 | 48.46642 | 2.15973 | 36839 ft | 434 kts | 192° |
| 2026-05-05 11:23 | 48.40746 | 2.13998 | 36824 ft | 435 kts | 191° |
| 2026-05-05 11:24 | 48.34829 | 2.12085 | 36822 ft | 435 kts | 191° |
| 2026-05-05 11:24 | 48.28892 | 2.10361 | 36801 ft | 434 kts | 182° |
| 2026-05-05 11:25 | 48.22927 | 2.11225 | 36807 ft | 434 kts | 173° |
| 2026-05-05 11:25 | 48.16912 | 2.12423 | 36808 ft | 435 kts | 172° |
| 2026-05-05 11:26 | 48.10904 | 2.12599 | 36841 ft | 434 kts | 187° |
| 2026-05-05 11:26 | 48.04885 | 2.11520 | 36833 ft | 436 kts | 187° |
| 2026-05-05 11:27 | 47.98908 | 2.10396 | 36831 ft | 435 kts | 187° |
| 2026-05-05 11:27 | 47.92851 | 2.09241 | 36831 ft | 435 kts | 187° |
| 2026-05-05 11:28 | 47.86886 | 2.08104 | 36834 ft | 435 kts | 187° |
| 2026-05-05 11:28 | 47.80875 | 2.06960 | 36832 ft | 435 kts | 187° |
| 2026-05-05 11:29 | 47.74871 | 2.05820 | 36818 ft | 435 kts | 187° |
| 2026-05-05 11:29 | 47.68861 | 2.04683 | 36813 ft | 435 kts | 187° |
| 2026-05-05 11:30 | 47.62881 | 2.03263 | 36799 ft | 434 kts | 199° |
| 2026-05-05 11:30 | 47.57263 | 2.00066 | 36829 ft | 436 kts | 200° |
| 2026-05-05 11:31 | 47.51592 | 1.96819 | 36835 ft | 436 kts | 200° |
| 2026-05-05 11:31 | 47.45923 | 1.93545 | 36842 ft | 437 kts | 200° |
| 2026-05-05 11:32 | 47.40268 | 1.90281 | 36858 ft | 437 kts | 200° |
| 2026-05-05 11:32 | 47.34591 | 1.87011 | 36827 ft | 437 kts | 200° |
| 2026-05-05 11:33 | 47.28955 | 1.83776 | 36864 ft | 437 kts | 200° |
| 2026-05-05 11:33 | 47.23281 | 1.80524 | 36860 ft | 437 kts | 200° |
| 2026-05-05 11:34 | 47.17594 | 1.77301 | 36850 ft | 437 kts | 200° |
| 2026-05-05 11:34 | 47.11909 | 1.74095 | 36854 ft | 437 kts | 200° |
| 2026-05-05 11:35 | 47.06258 | 1.70916 | 36875 ft | 438 kts | 200° |
| 2026-05-05 11:35 | 47.00566 | 1.67721 | 36878 ft | 438 kts | 200° |
| 2026-05-05 11:36 | 46.94867 | 1.64529 | 36888 ft | 437 kts | 200° |
| 2026-05-05 11:36 | 46.89190 | 1.61357 | 36892 ft | 437 kts | 200° |
| 2026-05-05 11:37 | 46.83508 | 1.58189 | 36884 ft | 437 kts | 200° |
| 2026-05-05 11:37 | 46.77821 | 1.55025 | 36883 ft | 437 kts | 200° |
| 2026-05-05 11:38 | 46.72172 | 1.51891 | 36878 ft | 437 kts | 200° |
| 2026-05-05 11:38 | 46.66490 | 1.48744 | 36873 ft | 437 kts | 200° |
| 2026-05-05 11:39 | 46.60788 | 1.45593 | 36874 ft | 437 kts | 200° |
| 2026-05-05 11:39 | 46.55099 | 1.42457 | 36875 ft | 437 kts | 201° |
| 2026-05-05 11:40 | 46.49446 | 1.39348 | 36875 ft | 437 kts | 200° |
| 2026-05-05 11:40 | 46.43749 | 1.36222 | 36878 ft | 437 kts | 201° |
| 2026-05-05 11:41 | 46.38049 | 1.33101 | 36883 ft | 437 kts | 201° |
| 2026-05-05 11:41 | 46.32361 | 1.29993 | 36883 ft | 437 kts | 201° |
| 2026-05-05 11:42 | 46.26700 | 1.26907 | 36883 ft | 437 kts | 201° |
| 2026-05-05 11:42 | 46.20999 | 1.23806 | 36890 ft | 437 kts | 201° |
| 2026-05-05 11:43 | 46.15306 | 1.20716 | 36896 ft | 437 kts | 201° |
| 2026-05-05 11:43 | 46.09631 | 1.17643 | 36902 ft | 437 kts | 201° |
| 2026-05-05 11:44 | 46.03934 | 1.14565 | 36904 ft | 437 kts | 201° |
| 2026-05-05 11:44 | 45.98221 | 1.11484 | 36913 ft | 437 kts | 201° |
| 2026-05-05 11:45 | 45.92508 | 1.08410 | 36913 ft | 437 kts | 201° |
| 2026-05-05 11:45 | 45.86843 | 1.05369 | 36914 ft | 437 kts | 201° |
| 2026-05-05 11:46 | 45.81283 | 1.01895 | 36897 ft | 435 kts | 216° |
| 2026-05-05 11:46 | 45.76569 | 0.96443 | 36912 ft | 437 kts | 219° |
| 2026-05-05 11:47 | 45.71877 | 0.90900 | 36911 ft | 437 kts | 219° |
| 2026-05-05 11:47 | 45.67204 | 0.85328 | 36912 ft | 437 kts | 219° |
| 2026-05-05 11:48 | 45.60226 | 0.77016 | 36913 ft | 437 kts | 219° |
| 2026-05-05 11:48 | 45.55552 | 0.71463 | 36915 ft | 437 kts | 219° |
| 2026-05-05 11:49 | 45.50878 | 0.65923 | 36921 ft | 437 kts | 219° |
| 2026-05-05 11:49 | 45.46198 | 0.60387 | 36925 ft | 437 kts | 219° |
| 2026-05-05 11:50 | 45.41541 | 0.54891 | 36925 ft | 437 kts | 219° |
| 2026-05-05 11:50 | 45.36853 | 0.49373 | 36928 ft | 437 kts | 219° |
| 2026-05-05 11:51 | 45.32164 | 0.43863 | 36930 ft | 437 kts | 219° |
| 2026-05-05 11:51 | 45.27471 | 0.38362 | 36934 ft | 437 kts | 219° |
| 2026-05-05 11:52 | 45.22776 | 0.32871 | 36935 ft | 437 kts | 219° |
| 2026-05-05 11:52 | 45.18107 | 0.27422 | 36938 ft | 437 kts | 219° |
| 2026-05-05 11:53 | 45.13412 | 0.21954 | 36937 ft | 436 kts | 219° |
| 2026-05-05 11:53 | 45.08707 | 0.16485 | 36943 ft | 436 kts | 219° |
| 2026-05-05 11:54 | 45.04042 | 0.11077 | 36944 ft | 436 kts | 219° |
| 2026-05-05 11:54 | 44.99342 | 0.05642 | 36948 ft | 435 kts | 219° |
| 2026-05-05 11:55 | 44.94648 | 0.00223 | 36950 ft | 435 kts | 219° |
| 2026-05-05 11:55 | 44.89959 | -0.05177 | 36948 ft | 435 kts | 219° |
| 2026-05-05 11:56 | 44.85266 | -0.10570 | 36945 ft | 435 kts | 219° |
| 2026-05-05 11:56 | 44.81369 | -0.15040 | 36950 ft | 434 kts | 219° |
| 2026-05-05 11:57 | 44.75909 | -0.21289 | 36954 ft | 434 kts | 219° |
| 2026-05-05 11:57 | 44.72010 | -0.25742 | 36955 ft | 434 kts | 219° |
| 2026-05-05 11:58 | 44.67314 | -0.31096 | 36958 ft | 434 kts | 219° |
| 2026-05-05 11:58 | 44.62312 | -0.35711 | 36963 ft | 434 kts | 208° |
| 2026-05-05 11:59 | 44.56967 | -0.39674 | 36958 ft | 434 kts | 208° |
| 2026-05-05 11:59 | 44.51583 | -0.43636 | 36959 ft | 434 kts | 208° |
| 2026-05-05 12:00 | 44.46267 | -0.47535 | 36959 ft | 434 kts | 208° |
| 2026-05-05 12:00 | 44.40920 | -0.51449 | 36958 ft | 434 kts | 208° |
| 2026-05-05 12:01 | 44.35563 | -0.55360 | 36959 ft | 434 kts | 208° |
| 2026-05-05 12:01 | 44.30213 | -0.59260 | 36958 ft | 433 kts | 208° |
| 2026-05-05 12:02 | 44.24854 | -0.63158 | 36962 ft | 433 kts | 208° |
| 2026-05-05 12:02 | 44.19524 | -0.67027 | 36973 ft | 434 kts | 208° |
| 2026-05-05 12:03 | 44.14158 | -0.70914 | 36971 ft | 434 kts | 209° |
| 2026-05-05 12:03 | 44.08792 | -0.74793 | 36980 ft | 434 kts | 209° |
| 2026-05-05 12:04 | 44.03435 | -0.78656 | 36982 ft | 434 kts | 209° |
| 2026-05-05 12:04 | 43.98070 | -0.82518 | 36982 ft | 433 kts | 209° |
| 2026-05-05 12:05 | 43.92753 | -0.86338 | 36986 ft | 433 kts | 209° |
| 2026-05-05 12:05 | 43.87404 | -0.90173 | 36989 ft | 432 kts | 209° |
| 2026-05-05 12:06 | 43.82065 | -0.93993 | 36990 ft | 432 kts | 209° |
| 2026-05-05 12:06 | 43.76717 | -0.97812 | 36992 ft | 432 kts | 209° |
| 2026-05-05 12:07 | 43.71364 | -1.01626 | 36992 ft | 432 kts | 209° |
| 2026-05-05 12:07 | 43.66028 | -1.05421 | 36989 ft | 431 kts | 209° |
| 2026-05-05 12:08 | 43.60684 | -1.09214 | 36991 ft | 432 kts | 209° |
| 2026-05-05 12:08 | 43.55366 | -1.12981 | 36994 ft | 432 kts | 209° |
| 2026-05-05 12:09 | 43.50028 | -1.16754 | 36995 ft | 432 kts | 209° |
| 2026-05-05 12:09 | 43.44681 | -1.20526 | 37011 ft | 431 kts | 209° |
| 2026-05-05 12:10 | 43.39336 | -1.24289 | 37008 ft | 431 kts | 209° |
| 2026-05-05 12:10 | 43.33991 | -1.28045 | 37011 ft | 431 kts | 209° |
| 2026-05-05 12:11 | 43.28647 | -1.31793 | 37013 ft | 430 kts | 209° |
| 2026-05-05 12:11 | 43.23315 | -1.35524 | 37018 ft | 430 kts | 209° |
| 2026-05-05 12:12 | 43.17989 | -1.39246 | 37013 ft | 430 kts | 209° |
| 2026-05-05 12:12 | 43.12683 | -1.42946 | 37020 ft | 430 kts | 209° |
| 2026-05-05 12:13 | 43.07351 | -1.46659 | 36996 ft | 430 kts | 209° |
| 2026-05-05 12:13 | 43.02016 | -1.50373 | 36993 ft | 430 kts | 209° |
| 2026-05-05 12:14 | 42.96682 | -1.54081 | 37006 ft | 429 kts | 209° |
| 2026-05-05 12:14 | 42.91351 | -1.57780 | 36995 ft | 430 kts | 209° |
| 2026-05-05 12:15 | 42.86013 | -1.61477 | 36986 ft | 430 kts | 209° |
| 2026-05-05 12:15 | 42.80709 | -1.65143 | 36987 ft | 430 kts | 209° |
| 2026-05-05 12:16 | 42.75364 | -1.68831 | 36995 ft | 429 kts | 209° |
| 2026-05-05 12:16 | 42.70012 | -1.72454 | 36990 ft | 429 kts | 209° |
| 2026-05-05 12:17 | 42.64658 | -1.76060 | 36990 ft | 429 kts | 209° |
| 2026-05-05 12:17 | 42.59308 | -1.79658 | 36991 ft | 429 kts | 209° |
| 2026-05-05 12:18 | 42.53956 | -1.83251 | 36985 ft | 429 kts | 209° |
| 2026-05-05 12:18 | 42.48599 | -1.86839 | 36982 ft | 428 kts | 209° |
| 2026-05-05 12:19 | 42.43294 | -1.90387 | 36973 ft | 428 kts | 209° |
| 2026-05-05 12:19 | 42.37949 | -1.93950 | 36979 ft | 428 kts | 209° |
| 2026-05-05 12:20 | 42.32606 | -1.97508 | 36978 ft | 428 kts | 209° |
| 2026-05-05 12:20 | 42.27273 | -2.01056 | 36973 ft | 427 kts | 209° |
| 2026-05-05 12:21 | 42.21930 | -2.04591 | 36976 ft | 427 kts | 209° |
| 2026-05-05 12:21 | 42.16591 | -2.08120 | 36973 ft | 427 kts | 209° |
| 2026-05-05 12:22 | 42.11282 | -2.11626 | 36973 ft | 427 kts | 209° |
| 2026-05-05 12:22 | 42.05946 | -2.15142 | 36961 ft | 426 kts | 209° |
| 2026-05-05 12:23 | 42.00621 | -2.18646 | 36968 ft | 426 kts | 209° |
| 2026-05-05 12:23 | 41.95298 | -2.22141 | 36963 ft | 425 kts | 209° |
| 2026-05-05 12:24 | 41.89977 | -2.25628 | 36962 ft | 425 kts | 209° |
| 2026-05-05 12:24 | 41.84676 | -2.29096 | 36957 ft | 425 kts | 209° |
| 2026-05-05 12:25 | 41.79360 | -2.32567 | 36956 ft | 425 kts | 209° |
| 2026-05-05 12:25 | 41.74037 | -2.36036 | 36962 ft | 425 kts | 209° |
| 2026-05-05 12:26 | 41.68713 | -2.39500 | 36959 ft | 425 kts | 209° |
| 2026-05-05 12:26 | 41.63425 | -2.42933 | 36961 ft | 425 kts | 209° |
| 2026-05-05 12:27 | 41.58096 | -2.46386 | 36964 ft | 425 kts | 209° |
| 2026-05-05 12:27 | 41.52777 | -2.49828 | 36964 ft | 424 kts | 210° |
| 2026-05-05 12:28 | 41.47460 | -2.53261 | 36973 ft | 423 kts | 210° |
| 2026-05-05 12:28 | 41.42158 | -2.56678 | 36974 ft | 423 kts | 210° |
| 2026-05-05 12:29 | 41.36859 | -2.60086 | 36975 ft | 422 kts | 210° |
| 2026-05-05 12:29 | 41.31672 | -2.63621 | 36974 ft | 417 kts | 218° |
| 2026-05-05 12:30 | 41.26895 | -2.68022 | 36980 ft | 417 kts | 218° |
| 2026-05-05 12:30 | 41.22113 | -2.72417 | 36978 ft | 417 kts | 218° |
| 2026-05-05 12:31 | 41.17339 | -2.76803 | 36983 ft | 417 kts | 218° |
| 2026-05-05 12:31 | 41.12604 | -2.81145 | 36977 ft | 416 kts | 218° |
| 2026-05-05 12:32 | 41.07835 | -2.85513 | 36977 ft | 416 kts | 218° |
| 2026-05-05 12:32 | 41.03066 | -2.89871 | 36975 ft | 416 kts | 218° |
| 2026-05-05 12:33 | 40.98298 | -2.94221 | 36980 ft | 416 kts | 218° |
| 2026-05-05 12:33 | 40.93521 | -2.98571 | 36978 ft | 416 kts | 218° |
| 2026-05-05 12:34 | 40.88756 | -3.02902 | 36976 ft | 416 kts | 218° |
| 2026-05-05 12:34 | 40.84023 | -3.07197 | 36974 ft | 416 kts | 218° |
| 2026-05-05 12:35 | 40.79245 | -3.11526 | 36977 ft | 415 kts | 218° |
| 2026-05-05 12:35 | 40.74240 | -3.15431 | 36971 ft | 418 kts | 214° |
| 2026-05-05 12:36 | 40.69220 | -3.19274 | 36975 ft | 417 kts | 214° |
| 2026-05-05 12:36 | 40.64231 | -3.23119 | 36970 ft | 417 kts | 214° |
| 2026-05-05 12:37 | 40.59213 | -3.26983 | 36973 ft | 417 kts | 214° |
| 2026-05-05 12:37 | 40.54200 | -3.30837 | 36959 ft | 417 kts | 215° |
| 2026-05-05 12:38 | 40.49193 | -3.34680 | 36968 ft | 416 kts | 215° |
| 2026-05-05 12:38 | 40.44189 | -3.38513 | 36960 ft | 416 kts | 215° |
| 2026-05-05 12:39 | 40.39228 | -3.42307 | 36957 ft | 415 kts | 215° |
| 2026-05-05 12:39 | 40.34238 | -3.46116 | 36966 ft | 415 kts | 215° |
| 2026-05-05 12:40 | 40.30079 | -3.49287 | 36967 ft | 415 kts | 215° |
| 2026-05-05 12:40 | 40.25078 | -3.53092 | 36990 ft | 415 kts | 215° |
| 2026-05-05 12:41 | 40.20083 | -3.56887 | 36988 ft | 415 kts | 215° |
| 2026-05-05 12:41 | 40.15082 | -3.60679 | 36988 ft | 415 kts | 215° |
| 2026-05-05 12:42 | 40.10079 | -3.64468 | 36985 ft | 415 kts | 215° |
| 2026-05-05 12:42 | 40.05083 | -3.68244 | 36985 ft | 415 kts | 215° |
| 2026-05-05 12:43 | 40.00087 | -3.72014 | 36978 ft | 414 kts | 216° |
| 2026-05-05 12:43 | 39.95130 | -3.75748 | 36977 ft | 414 kts | 216° |
| 2026-05-05 12:44 | 39.90144 | -3.79497 | 36974 ft | 413 kts | 216° |
| 2026-05-05 12:44 | 39.85161 | -3.83238 | 36977 ft | 412 kts | 216° |
| 2026-05-05 12:45 | 39.80187 | -3.86965 | 36982 ft | 412 kts | 216° |
| 2026-05-05 12:45 | 39.75208 | -3.90690 | 36978 ft | 412 kts | 216° |
| 2026-05-05 12:46 | 39.70234 | -3.94405 | 36974 ft | 412 kts | 216° |
| 2026-05-05 12:46 | 39.65271 | -3.98107 | 36975 ft | 411 kts | 216° |
| 2026-05-05 12:47 | 39.60311 | -4.01798 | 36979 ft | 411 kts | 216° |
| 2026-05-05 12:47 | 39.55386 | -4.05459 | 36978 ft | 410 kts | 216° |
| 2026-05-05 12:48 | 39.50435 | -4.09131 | 36979 ft | 409 kts | 216° |
| 2026-05-05 12:48 | 39.45501 | -4.12786 | 36986 ft | 408 kts | 216° |
| 2026-05-05 12:49 | 39.40570 | -4.16433 | 36984 ft | 407 kts | 216° |
| 2026-05-05 12:49 | 39.35649 | -4.20066 | 36988 ft | 406 kts | 216° |
| 2026-05-05 12:50 | 39.30736 | -4.23687 | 36988 ft | 406 kts | 216° |
| 2026-05-05 12:50 | 39.25855 | -4.27279 | 36992 ft | 405 kts | 216° |
| 2026-05-05 12:51 | 39.20945 | -4.30886 | 36992 ft | 405 kts | 216° |
| 2026-05-05 12:51 | 39.16042 | -4.34482 | 36990 ft | 405 kts | 216° |
| 2026-05-05 12:52 | 39.11173 | -4.38048 | 36994 ft | 405 kts | 216° |
| 2026-05-05 12:52 | 39.06270 | -4.41632 | 36995 ft | 405 kts | 216° |
| 2026-05-05 12:53 | 39.01370 | -4.45210 | 36993 ft | 404 kts | 216° |
| 2026-05-05 12:53 | 38.96468 | -4.48782 | 37004 ft | 404 kts | 216° |
| 2026-05-05 12:54 | 38.89153 | -4.54102 | 36995 ft | 404 kts | 217° |
| 2026-05-05 12:55 | 38.84258 | -4.57655 | 37000 ft | 404 kts | 217° |
| 2026-05-05 12:55 | 38.79364 | -4.61202 | 37011 ft | 404 kts | 217° |
| 2026-05-05 12:56 | 38.74464 | -4.64747 | 37007 ft | 404 kts | 217° |
| 2026-05-05 12:56 | 38.69560 | -4.68290 | 37004 ft | 404 kts | 217° |
| 2026-05-05 12:57 | 38.64661 | -4.71824 | 37006 ft | 404 kts | 217° |
| 2026-05-05 12:57 | 38.59750 | -4.75359 | 37005 ft | 404 kts | 217° |
| 2026-05-05 12:58 | 38.54874 | -4.78865 | 37009 ft | 404 kts | 217° |
| 2026-05-05 12:58 | 38.49960 | -4.82393 | 37006 ft | 404 kts | 216° |
| 2026-05-05 12:59 | 38.45048 | -4.85913 | 37008 ft | 404 kts | 217° |
| 2026-05-05 12:59 | 38.40142 | -4.89424 | 37009 ft | 404 kts | 216° |
| 2026-05-05 13:00 | 38.32812 | -4.94659 | 37008 ft | 404 kts | 216° |
| 2026-05-05 13:01 | 38.22995 | -5.01652 | 37009 ft | 404 kts | 216° |
| 2026-05-05 13:01 | 38.18079 | -5.05144 | 37008 ft | 404 kts | 216° |
| 2026-05-05 13:02 | 38.12928 | -5.08153 | 37005 ft | 409 kts | 211° |
| 2026-05-05 13:02 | 38.07770 | -5.11061 | 36552 ft | 400 kts | 212° |
| 2026-05-05 13:03 | 38.05277 | -5.12481 | 36067 ft | 396 kts | 212° |
| 2026-05-05 13:03 | 38.02773 | -5.13908 | 35570 ft | 393 kts | 212° |
| 2026-05-05 13:03 | 38.00292 | -5.15320 | 35081 ft | 389 kts | 212° |
| 2026-05-05 13:03 | 37.97831 | -5.16721 | 34609 ft | 386 kts | 212° |
| 2026-05-05 13:04 | 37.95385 | -5.18113 | 34138 ft | 383 kts | 212° |
| 2026-05-05 13:04 | 37.92958 | -5.19492 | 33620 ft | 380 kts | 212° |
| 2026-05-05 13:04 | 37.90553 | -5.20858 | 33114 ft | 377 kts | 212° |
| 2026-05-05 13:04 | 37.88175 | -5.22203 | 32575 ft | 372 kts | 212° |
| 2026-05-05 13:05 | 37.85826 | -5.23538 | 32184 ft | 366 kts | 212° |
| 2026-05-05 13:05 | 37.83547 | -5.24831 | 31807 ft | 361 kts | 212° |
| 2026-05-05 13:05 | 37.81269 | -5.26122 | 31374 ft | 357 kts | 212° |
| 2026-05-05 13:05 | 37.79016 | -5.27398 | 30953 ft | 353 kts | 212° |
| 2026-05-05 13:06 | 37.76784 | -5.28660 | 30536 ft | 349 kts | 212° |
| 2026-05-05 13:06 | 37.74576 | -5.29909 | 30129 ft | 346 kts | 212° |
| 2026-05-05 13:06 | 37.72387 | -5.31145 | 29667 ft | 345 kts | 212° |
| 2026-05-05 13:06 | 37.70179 | -5.32392 | 29218 ft | 348 kts | 212° |
| 2026-05-05 13:07 | 37.67966 | -5.33640 | 28815 ft | 349 kts | 212° |
| 2026-05-05 13:07 | 37.65746 | -5.34892 | 28420 ft | 348 kts | 212° |
| 2026-05-05 13:07 | 37.63534 | -5.36138 | 28011 ft | 348 kts | 211° |
| 2026-05-05 13:07 | 37.61351 | -5.37367 | 27620 ft | 347 kts | 211° |
| 2026-05-05 13:08 | 37.59143 | -5.38610 | 27225 ft | 346 kts | 211° |
| 2026-05-05 13:08 | 37.56939 | -5.39849 | 26816 ft | 346 kts | 211° |
| 2026-05-05 13:08 | 37.54746 | -5.41082 | 26416 ft | 345 kts | 211° |
| 2026-05-05 13:08 | 37.52547 | -5.42316 | 26007 ft | 344 kts | 211° |
| 2026-05-05 13:09 | 37.50361 | -5.43543 | 25608 ft | 344 kts | 210° |
| 2026-05-05 13:09 | 37.48178 | -5.44768 | 25223 ft | 343 kts | 210° |
| 2026-05-05 13:09 | 37.45997 | -5.45990 | 24830 ft | 342 kts | 210° |
| 2026-05-05 13:09 | 37.43823 | -5.47208 | 24441 ft | 342 kts | 210° |
| 2026-05-05 13:10 | 37.41656 | -5.48421 | 24051 ft | 341 kts | 210° |
| 2026-05-05 13:10 | 37.39491 | -5.49633 | 23662 ft | 340 kts | 210° |
| 2026-05-05 13:10 | 37.37334 | -5.50839 | 23213 ft | 340 kts | 210° |
| 2026-05-05 13:10 | 37.35168 | -5.52050 | 22786 ft | 339 kts | 209° |
| 2026-05-05 13:11 | 37.33044 | -5.53236 | 22399 ft | 338 kts | 209° |
| 2026-05-05 13:11 | 37.30900 | -5.54432 | 22014 ft | 336 kts | 209° |
| 2026-05-05 13:11 | 37.28764 | -5.55623 | 21635 ft | 335 kts | 209° |
| 2026-05-05 13:11 | 37.26644 | -5.56805 | 21251 ft | 334 kts | 209° |
| 2026-05-05 13:12 | 37.24525 | -5.57985 | 20866 ft | 333 kts | 209° |
| 2026-05-05 13:12 | 37.22406 | -5.59165 | 20482 ft | 331 kts | 209° |
| 2026-05-05 13:12 | 37.20295 | -5.60340 | 20091 ft | 330 kts | 209° |
| 2026-05-05 13:12 | 37.18203 | -5.61503 | 19721 ft | 328 kts | 209° |
| 2026-05-05 13:13 | 37.16101 | -5.62640 | 19293 ft | 328 kts | 208° |
| 2026-05-05 13:13 | 37.14015 | -5.63762 | 18929 ft | 325 kts | 208° |
| 2026-05-05 13:13 | 37.11938 | -5.64881 | 18563 ft | 323 kts | 208° |
| 2026-05-05 13:13 | 37.09958 | -5.65948 | 18195 ft | 320 kts | 208° |
| 2026-05-05 13:14 | 37.07941 | -5.67033 | 17779 ft | 318 kts | 208° |
| 2026-05-05 13:14 | 37.05913 | -5.68124 | 17396 ft | 314 kts | 208° |
| 2026-05-05 13:14 | 37.03912 | -5.69202 | 17029 ft | 311 kts | 208° |
| 2026-05-05 13:14 | 37.01933 | -5.70266 | 16665 ft | 308 kts | 208° |
| 2026-05-05 13:15 | 36.99978 | -5.71317 | 16309 ft | 304 kts | 208° |
| 2026-05-05 13:15 | 36.98039 | -5.72358 | 15956 ft | 302 kts | 208° |
| 2026-05-05 13:15 | 36.96102 | -5.73398 | 15593 ft | 304 kts | 207° |
| 2026-05-05 13:15 | 36.94179 | -5.74430 | 15236 ft | 305 kts | 207° |
| 2026-05-05 13:16 | 36.92225 | -5.75478 | 14862 ft | 306 kts | 207° |
| 2026-05-05 13:16 | 36.90266 | -5.76529 | 14506 ft | 306 kts | 207° |
| 2026-05-05 13:16 | 36.88312 | -5.77575 | 14147 ft | 304 kts | 207° |
| 2026-05-05 13:16 | 36.86371 | -5.78614 | 13787 ft | 302 kts | 207° |
| 2026-05-05 13:17 | 36.84494 | -5.79781 | 13177 ft | 301 kts | 220° |
| 2026-05-05 13:17 | 36.83148 | -5.81686 | 12916 ft | 287 kts | 244° |
| 2026-05-05 13:17 | 36.82597 | -5.83986 | 12839 ft | 271 kts | 267° |
| 2026-05-05 13:17 | 36.82796 | -5.86240 | 12746 ft | 264 kts | 288° |
| 2026-05-05 13:18 | 36.83667 | -5.88300 | 12652 ft | 276 kts | 306° |
| 2026-05-05 13:18 | 36.85122 | -5.89906 | 12545 ft | 286 kts | 326° |
| 2026-05-05 13:18 | 36.87000 | -5.90799 | 12438 ft | 294 kts | 346° |
| 2026-05-05 13:18 | 36.89064 | -5.90791 | 12341 ft | 302 kts | 8° |
| 2026-05-05 13:19 | 36.91025 | -5.89786 | 12239 ft | 308 kts | 25° |
| 2026-05-05 13:19 | 36.92943 | -5.88594 | 12125 ft | 307 kts | 21° |
| 2026-05-05 13:19 | 36.94874 | -5.87468 | 11876 ft | 308 kts | 21° |
| 2026-05-05 13:19 | 36.96787 | -5.86320 | 11510 ft | 309 kts | 22° |
| 2026-05-05 13:20 | 36.98546 | -5.84694 | 11068 ft | 316 kts | 48° |
| 2026-05-05 13:20 | 36.99495 | -5.82260 | 10684 ft | 320 kts | 78° |
| 2026-05-05 13:20 | 36.99423 | -5.79502 | 10302 ft | 319 kts | 108° |
| 2026-05-05 13:20 | 36.98369 | -5.77147 | 10120 ft | 306 kts | 135° |
| 2026-05-05 13:21 | 36.96693 | -5.75608 | 9822 ft | 296 kts | 160° |
| 2026-05-05 13:21 | 36.94728 | -5.75040 | 9390 ft | 289 kts | 183° |
| 2026-05-05 13:21 | 36.92781 | -5.75455 | 8985 ft | 282 kts | 203° |
| 2026-05-05 13:21 | 36.90948 | -5.76323 | 8624 ft | 280 kts | 204° |
| 2026-05-05 13:22 | 36.89136 | -5.77225 | 8249 ft | 279 kts | 205° |
| 2026-05-05 13:22 | 36.87356 | -5.78140 | 8080 ft | 272 kts | 205° |
| 2026-05-05 13:22 | 36.85622 | -5.79047 | 8043 ft | 271 kts | 206° |
| 2026-05-05 13:22 | 36.84074 | -5.80322 | 7997 ft | 265 kts | 230° |
| 2026-05-05 13:23 | 36.83142 | -5.82235 | 8028 ft | 261 kts | 254° |
| 2026-05-05 13:23 | 36.82939 | -5.84451 | 8021 ft | 257 kts | 278° |
| 2026-05-05 13:23 | 36.83496 | -5.86561 | 8020 ft | 257 kts | 301° |
| 2026-05-05 13:23 | 36.84690 | -5.88213 | 8024 ft | 258 kts | 323° |
| 2026-05-05 13:24 | 36.86307 | -5.89191 | 8024 ft | 261 kts | 343° |
| 2026-05-05 13:24 | 36.87503 | -5.89389 | 8025 ft | 264 kts | 359° |
| 2026-05-05 13:24 | 36.89310 | -5.88931 | 8039 ft | 268 kts | 17° |
| 2026-05-05 13:24 | 36.91067 | -5.88128 | 8025 ft | 269 kts | 18° |
| 2026-05-05 13:25 | 36.92812 | -5.87280 | 8015 ft | 269 kts | 18° |
| 2026-05-05 13:25 | 36.94562 | -5.86413 | 8024 ft | 270 kts | 19° |
| 2026-05-05 13:25 | 36.96303 | -5.85544 | 8022 ft | 270 kts | 20° |
| 2026-05-05 13:25 | 36.97858 | -5.84233 | 8013 ft | 274 kts | 46° |
| 2026-05-05 13:26 | 36.98793 | -5.82155 | 8008 ft | 278 kts | 73° |
| 2026-05-05 13:26 | 36.98890 | -5.79738 | 8008 ft | 282 kts | 100° |
| 2026-05-05 13:26 | 36.98139 | -5.77488 | 8027 ft | 283 kts | 126° |
| 2026-05-05 13:26 | 36.96725 | -5.75791 | 8025 ft | 282 kts | 149° |
| 2026-05-05 13:27 | 36.94933 | -5.74996 | 8009 ft | 276 kts | 178° |
| 2026-05-05 13:27 | 36.93046 | -5.75296 | 8035 ft | 272 kts | 203° |
| 2026-05-05 13:27 | 36.91390 | -5.76394 | 8037 ft | 271 kts | 212° |
| 2026-05-05 13:27 | 36.89723 | -5.77507 | 8004 ft | 271 kts | 211° |
| 2026-05-05 13:28 | 36.88051 | -5.78597 | 8022 ft | 272 kts | 210° |
| 2026-05-05 13:28 | 36.86372 | -5.79681 | 8017 ft | 272 kts | 210° |
| 2026-05-05 13:28 | 36.84688 | -5.80764 | 8037 ft | 272 kts | 210° |
| 2026-05-05 13:28 | 36.83003 | -5.81842 | 8016 ft | 272 kts | 211° |
| 2026-05-05 13:29 | 36.81314 | -5.82923 | 8023 ft | 272 kts | 210° |
| 2026-05-05 13:29 | 36.79650 | -5.83986 | 8018 ft | 272 kts | 210° |
| 2026-05-05 13:29 | 36.77965 | -5.85061 | 8003 ft | 272 kts | 210° |
| 2026-05-05 13:29 | 36.76279 | -5.86136 | 8035 ft | 272 kts | 210° |
| 2026-05-05 13:30 | 36.74592 | -5.87210 | 8014 ft | 272 kts | 210° |
| 2026-05-05 13:30 | 36.72907 | -5.88285 | 8021 ft | 272 kts | 210° |
| 2026-05-05 13:30 | 36.71220 | -5.89360 | 8011 ft | 272 kts | 210° |
| 2026-05-05 13:30 | 36.69533 | -5.90433 | 8030 ft | 272 kts | 210° |
| 2026-05-05 13:31 | 36.67846 | -5.91504 | 8024 ft | 272 kts | 210° |
| 2026-05-05 13:31 | 36.66159 | -5.92576 | 8018 ft | 271 kts | 210° |
| 2026-05-05 13:31 | 36.64493 | -5.93635 | 8028 ft | 272 kts | 210° |
| 2026-05-05 13:31 | 36.62802 | -5.94710 | 8022 ft | 272 kts | 210° |
| 2026-05-05 13:32 | 36.61116 | -5.95780 | 8022 ft | 272 kts | 210° |
| 2026-05-05 13:32 | 36.59429 | -5.96850 | 8034 ft | 272 kts | 210° |
| 2026-05-05 13:32 | 36.57740 | -5.97924 | 8015 ft | 272 kts | 210° |
| 2026-05-05 13:32 | 36.56054 | -5.98992 | 8045 ft | 272 kts | 210° |
| 2026-05-05 13:33 | 36.54365 | -6.00063 | 8038 ft | 272 kts | 210° |
| 2026-05-05 13:33 | 36.52680 | -6.01135 | 8023 ft | 271 kts | 211° |
| 2026-05-05 13:33 | 36.51202 | -6.02576 | 7500 ft | 276 kts | 234° |
| 2026-05-05 13:33 | 36.50462 | -6.04764 | 6935 ft | 280 kts | 264° |
| 2026-05-05 13:34 | 36.50539 | -6.07142 | 6360 ft | 275 kts | 282° |
| 2026-05-05 13:34 | 36.50878 | -6.09502 | 5676 ft | 278 kts | 282° |
| 2026-05-05 13:34 | 36.51224 | -6.11882 | 5058 ft | 280 kts | 282° |
| 2026-05-05 13:34 | 36.51843 | -6.14104 | 4572 ft | 267 kts | 306° |
| 2026-05-05 13:35 | 36.53270 | -6.15449 | 4184 ft | 256 kts | 342° |
| 2026-05-05 13:35 | 36.54994 | -6.15514 | 3835 ft | 253 kts | 14° |
| 2026-05-05 13:35 | 36.56628 | -6.14761 | 3482 ft | 246 kts | 17° |
| 2026-05-05 13:35 | 36.58207 | -6.14053 | 3225 ft | 236 kts | 17° |
| 2026-05-05 13:36 | 36.59721 | -6.13335 | 2975 ft | 227 kts | 19° |
| 2026-05-05 13:36 | 36.61140 | -6.12625 | 2682 ft | 218 kts | 20° |
| 2026-05-05 13:36 | 36.62530 | -6.11934 | 2413 ft | 207 kts | 18° |
| 2026-05-05 13:36 | 36.63831 | -6.11293 | 2120 ft | 200 kts | 18° |
| 2026-05-05 13:37 | 36.65054 | -6.10686 | 1913 ft | 181 kts | 17° |
| 2026-05-05 13:37 | 36.66194 | -6.10119 | 1680 ft | 171 kts | 16° |
| 2026-05-05 13:37 | 36.67243 | -6.09597 | 1467 ft | 159 kts | 17° |
| 2026-05-05 13:37 | 36.68281 | -6.09080 | 1236 ft | 158 kts | 17° |
| 2026-05-05 13:38 | 36.69245 | -6.08601 | 1031 ft | 143 kts | 19° |
| 2026-05-05 13:38 | 36.70170 | -6.08137 | 825 ft | 144 kts | 17° |
| 2026-05-05 13:38 | 36.71100 | -6.07679 | 622 ft | 143 kts | 19° |
| 2026-05-05 13:38 | 36.72099 | -6.07181 | 423 ft | 185 kts | 21° |
| 2026-05-05 13:39 | 36.73384 | -6.06506 | 141 ft | 200 kts | 24° |
| 2026-05-05 13:39 | 36.74535 | -6.05834 | 726 ft | 179 kts | 24° |
| 2026-05-05 13:39 | 36.75593 | -6.05183 | 1907 ft | 170 kts | 24° |
| 2026-05-05 13:39 | 36.76620 | -6.04555 | 3076 ft | 160 kts | 14° |
| 2026-05-05 13:40 | 36.77750 | -6.04124 | 3738 ft | 182 kts | 15° |
| 2026-05-05 13:40 | 36.78848 | -6.03231 | 3837 ft | 200 kts | 47° |
| 2026-05-05 13:40 | 36.79421 | -6.01586 | 3892 ft | 220 kts | 78° |
| 2026-05-05 13:40 | 36.79628 | -5.99616 | 3935 ft | 235 kts | 81° |
| 2026-05-05 13:41 | 36.79818 | -5.97562 | 3888 ft | 239 kts | 82° |
| 2026-05-05 13:41 | 36.79861 | -5.95515 | 3870 ft | 242 kts | 102° |
| 2026-05-05 13:41 | 36.79037 | -5.93719 | 3868 ft | 240 kts | 137° |
| 2026-05-05 13:41 | 36.77617 | -5.92630 | 3935 ft | 242 kts | 164° |
| 2026-05-05 13:42 | 36.75979 | -5.92549 | 3985 ft | 235 kts | 193° |
| 2026-05-05 13:42 | 36.74414 | -5.93168 | 3866 ft | 236 kts | 202° |
| 2026-05-05 13:42 | 36.72865 | -5.93835 | 3923 ft | 236 kts | 201° |
| 2026-05-05 13:42 | 36.71296 | -5.94484 | 3920 ft | 237 kts | 201° |
| 2026-05-05 13:43 | 36.69730 | -5.95122 | 3905 ft | 237 kts | 200° |
| 2026-05-05 13:43 | 36.68157 | -5.95753 | 3913 ft | 237 kts | 201° |
| 2026-05-05 13:43 | 36.66591 | -5.96380 | 3893 ft | 236 kts | 200° |
| 2026-05-05 13:43 | 36.65013 | -5.97004 | 3926 ft | 239 kts | 200° |
| 2026-05-05 13:44 | 36.63446 | -5.97617 | 3904 ft | 238 kts | 200° |
| 2026-05-05 13:44 | 36.61864 | -5.98236 | 3890 ft | 239 kts | 200° |
| 2026-05-05 13:44 | 36.60283 | -5.98855 | 3938 ft | 239 kts | 200° |
| 2026-05-05 13:44 | 36.58686 | -5.99480 | 3924 ft | 240 kts | 199° |
| 2026-05-05 13:45 | 36.57102 | -6.00094 | 3723 ft | 238 kts | 200° |
| 2026-05-05 13:45 | 36.55526 | -6.00707 | 3506 ft | 234 kts | 200° |
| 2026-05-05 13:45 | 36.53975 | -6.01313 | 3292 ft | 234 kts | 201° |
| 2026-05-05 13:45 | 36.52446 | -6.01994 | 3143 ft | 231 kts | 212° |
| 2026-05-05 13:46 | 36.51329 | -6.03294 | 3135 ft | 217 kts | 242° |
| 2026-05-05 13:46 | 36.50786 | -6.05026 | 3142 ft | 219 kts | 263° |
| 2026-05-05 13:46 | 36.50771 | -6.06898 | 3127 ft | 218 kts | 276° |
| 2026-05-05 13:46 | 36.50941 | -6.08781 | 3123 ft | 218 kts | 278° |
| 2026-05-05 13:47 | 36.51143 | -6.10652 | 3110 ft | 219 kts | 280° |
| 2026-05-05 13:47 | 36.51394 | -6.12525 | 3147 ft | 220 kts | 283° |
| 2026-05-05 13:47 | 36.52116 | -6.14165 | 3105 ft | 218 kts | 314° |
| 2026-05-05 13:47 | 36.53405 | -6.15138 | 3100 ft | 220 kts | 342° |
| 2026-05-05 13:48 | 36.54905 | -6.15238 | 3126 ft | 212 kts | 8° |
| 2026-05-05 13:48 | 36.56280 | -6.14710 | 3144 ft | 204 kts | 14° |
| 2026-05-05 13:48 | 36.57640 | -6.14233 | 3133 ft | 203 kts | 13° |
| 2026-05-05 13:48 | 36.58999 | -6.13669 | 3084 ft | 207 kts | 16° |
| 2026-05-05 13:49 | 36.60340 | -6.13030 | 2832 ft | 206 kts | 18° |
| 2026-05-05 13:49 | 36.61675 | -6.12362 | 2544 ft | 206 kts | 18° |
| 2026-05-05 13:49 | 36.62995 | -6.11706 | 2280 ft | 203 kts | 18° |
| 2026-05-05 13:49 | 36.64263 | -6.11077 | 2076 ft | 183 kts | 17° |
| 2026-05-05 13:50 | 36.65363 | -6.10532 | 1886 ft | 165 kts | 17° |
| 2026-05-05 13:50 | 36.66418 | -6.10007 | 1631 ft | 162 kts | 17° |
| 2026-05-05 13:50 | 36.67475 | -6.09482 | 1393 ft | 165 kts | 18° |
| 2026-05-05 13:50 | 36.68526 | -6.08958 | 1179 ft | 156 kts | 17° |
| 2026-05-05 13:51 | 36.69503 | -6.08471 | 992 ft | 150 kts | 17° |
| 2026-05-05 13:51 | 36.70486 | -6.07983 | 794 ft | 152 kts | 18° |
| 2026-05-05 13:51 | 36.71471 | -6.07495 | 592 ft | 153 kts | 19° |
| 2026-05-05 13:51 | 36.72460 | -6.06994 | 307 ft | 153 kts | 19° |
| 2026-05-05 13:52 | 36.73460 | -6.06496 | 119 ft | 156 kts | 17° |
| 2026-05-05 13:52 | 36.74415 | -6.06041 | 92 ft | 131 kts | 17° |
| 2026-05-05 13:52 | 36.75042 | -6.05732 | 96 ft | 67 kts | 21° |
| 2026-05-05 13:52 | 36.75350 | -6.05579 | 95 ft | 35 kts | 19° |
| 2026-05-05 13:53 | 36.75451 | -6.05649 | 89 ft | 17 kts | 301° |
| 2026-05-05 13:53 | 36.75466 | -6.05750 | 89 ft | 9 kts | 232° |
| 2026-05-05 13:53 | 36.75410 | -6.05783 | 91 ft | 10 kts | 198° |
| 2026-05-05 13:53 | 36.75322 | -6.05819 | 89 ft | 17 kts | 200° |
| 2026-05-05 13:54 | 36.75201 | -6.05875 | 89 ft | 20 kts | 198° |
| 2026-05-05 13:54 | 36.75063 | -6.05936 | 92 ft | 22 kts | 201° |
| 2026-05-05 13:54 | 36.74944 | -6.06001 | 90 ft | 15 kts | 220° |
| 2026-05-05 13:54 | 36.74948 | -6.06118 | 87 ft | 13 kts | 292° |
| 2026-05-05 13:55 | 36.74956 | -6.06216 | 87 ft | 8 kts | 274° |
| 2026-05-05 13:55 | 36.74963 | -6.06265 | 87 ft | 2 kts | 297° |
| 2026-05-05 13:55 | 36.74975 | -6.06293 | 89 ft | 5 kts | 294° |
| 2026-05-05 13:55 | 36.74978 | -6.06304 | 88 ft | 0 kts | 292° |